Reno (UNR), Valley Road, Nevada Weather observations

Data are for observation ending at time listed.
 Day   Time    Ave.   Ave.  Ave.  Vector   Max.    Total    Solar   Rl      Baro.   Ave.  
  of    of     Air    Rel.  Wind   Wind    Wind   Precip.   Rad.    in      Pres.   Soil  
Year   Day     Temp.  Hum.  Speed  Dir.    Gust                                     Temp. 
2026   (PST)    F      %     mph   deg.    mph      in.     W/m2    W/m2     mb.     F   
-----------------------------------------------------------------------------------------
 122   22:00   54.7    78    2.6   284      4.9     0.00       0     355    862.0   63.6
 122   22:10   54.4    78    1.1    35      4.5     0.00       0     363    862.1   63.5
 122   22:20   54.3    78    1.1    98      2.3     0.00       0     353    862.1   63.4
 122   22:30   54.2    79    2.1   181      4.2     0.00       0     359    861.9   63.4
 122   22:40   54.3    80    4.0   242      7.5     0.00       0     363    861.9   63.3
 122   22:50   54.5    79    2.7   231      4.2     0.00       0     362    861.9   63.2
 122   23:00   54.2    81    3.9   238      7.2     0.00       0     364    861.8   63.1
 122   23:10   53.9    82    2.0   175      3.6     0.00       0     363    862.0   63.0
 122   23:20   54.0    80    3.3   188      5.9     0.00       0     364    862.2   62.9
 122   23:30   54.3    78    6.3   326      9.9     0.00       0     366    861.6   62.8
 122   23:40   54.4    79    6.0   110     12.6     0.00       0     359    862.1   62.7
 122   23:50   54.9    77    1.3    92      5.6     0.00       0     356    862.3   62.7
 123    0:00   54.6    79    1.2   348      2.7     0.00       0     352    862.4   62.6
 123    0:10   54.1    81    1.5   330      3.9     0.00       0     359    862.3   62.5
 123    0:20   53.5    82    4.1   350      5.4     0.00       0     366    862.2   62.4
 123    0:30   53.9    81    5.0   348      7.3     0.00       0     369    861.7   62.4
 123    0:40   54.2    80    2.5   200      6.2     0.00       0     365    861.7   62.3
 123    0:50   54.3    79    5.2   199      9.8     0.00       0     359    861.7   62.2
 123    1:00   54.6    78    3.1   249      5.3     0.00       0     353    861.5   62.2
 123    1:10   54.3    77    2.6   252      3.7     0.00       0     358    861.5   62.1
 123    1:20   54.2    78    3.0   275      4.8     0.00       0     360    861.4   62.0
 123    1:30   53.8    81    3.1   226      6.2     0.00       0     361    861.3   62.0
 123    1:40   53.4    83    2.4    40      3.3     0.00       0     366    861.2   61.9
 123    1:50   53.0    85    1.6   230      2.5     0.00       0     370    861.2   61.8
 123    2:00   52.7    87    2.1   229      3.3     0.00       0     369    861.1   61.8
 123    2:10   52.6    87    2.6   280      3.9     0.00       0     360    861.1   61.7
 123    2:20   52.3    86    1.3   344      2.6     0.00       0     359    861.0   61.6
 123    2:30   51.4    89    1.8    18      3.4     0.00       0     357    861.0   61.6
 123    2:40   50.7    91    2.0   230      3.0     0.00       0     356    860.8   61.5
 123    2:50   50.5    92    1.3   195      2.7     0.00       0     357    861.0   61.4
 123    3:00   50.7    92    1.0   310      3.6     0.00       0     356    861.0   61.4
 123    3:10   51.0    90    2.6   273      4.2     0.00       0     357    861.0   61.3
 123    3:20   51.2    88    1.5   320      2.6     0.00       0     357    860.8   61.2
 123    3:30   50.7    88    1.2    46      2.3     0.00       0     355    860.5   61.2
 123    3:40   49.8    91    0.9   288      2.3     0.00       0     353    860.4   61.1
 123    3:50   49.3    91    0.0     0      0.0     0.00       0     351    860.3   61.0
 123    4:00   49.2    93    0.8   284      2.2     0.00       0     353    860.2   60.9
 123    4:10   48.9    93    1.8    11      4.0     0.00       0     351    860.1   60.9
 123    4:20   48.8    94    1.4   356      3.0     0.00       0     350    860.3   60.8
 123    4:30   49.0    94    0.8   159      1.7     0.00       0     350    860.2   60.7
 123    4:40   48.9    94    0.4   167      1.4     0.00       0     350    860.3   60.6
 123    4:50   48.7    94    2.5   311      3.5     0.00       0     350    860.2   60.5
 123    5:00   48.5    95    2.4   306      3.3     0.00       2     350    860.3   60.5
 123    5:10   48.5    94    2.1   293      2.7     0.00       5     350    860.3   60.4
 123    5:20   48.7    92    2.0   314      3.0     0.00      13     350    860.3   60.3
 123    5:30   49.0    90    2.3   313      3.7     0.00      25     352    860.4   60.2
 123    5:40   49.5    88    1.1   326      2.2     0.00      37     354    860.2   60.1
 123    5:50   49.7    88    1.0   142      2.7     0.00      51     355    860.3   60.1
 123    6:00   50.3    88    0.5   161      1.4     0.00      73     358    860.2   60.0
 123    6:10   51.0    88    2.3   178      3.5     0.00      80     359    860.4   59.9
 123    6:20   51.8    86    0.5   171      1.7     0.00     102     364    860.4   59.9
 123    6:30   52.3    84    2.0   332      2.7     0.00     162     362    860.5   59.8
 123    6:40   53.0    82    2.1   355      2.7     0.00     203     363    860.4   59.8
 123    6:50   54.5    79    1.1    24      2.6     0.00     244     357    860.5   59.7
 123    7:00   55.2    78    1.5    36      3.5     0.00     218     340    860.5   59.7
 123    7:10   55.9    78    1.2    84      3.1     0.00     261     339    860.4   59.6
 123    7:20   55.9    77    1.8   360      3.6     0.00     258     342    860.5   59.6
 123    7:30   56.6    76    0.7   323      1.7     0.00     264     340    860.4   59.7
 123    7:40   57.6    74    1.5    84      3.1     0.00     293     343    860.4   59.7
 123    7:50   58.4    71    1.0   159      2.5     0.00     331     347    860.4   59.7
 123    8:00   58.7    70    1.5    13      3.4     0.00     324     351    860.3   59.8
 123    8:10   58.4    70    1.7    70      4.7     0.00     305     358    860.3   59.8
 123    8:20   60.0    67    0.8   136      2.0     0.00     364     360    860.2   59.9
 123    8:30   62.4    62    1.7   177      3.6     0.00     456     357    860.2   60.0
 123    8:40   63.0    59    1.5   112      3.4     0.00     491     356    860.1   60.1
 123    8:50   61.9    60    2.5    58      4.2     0.00     384     366    860.0   60.2
 123    9:00   63.1    57    1.8    93      5.6     0.00     594     367    859.9   60.3
 123    9:10   65.5    52    2.2   126      5.0     0.00     640     363    859.8   60.4
 123    9:20   66.4    49    2.5   118      5.8     0.00     430     373    859.8   60.5
 123    9:30   64.8    51    1.7   108      3.5     0.00     438     381    859.8   60.7
 123    9:40   67.2    47    2.4   151      6.7     0.00     535     381    859.7   60.8
 123    9:50   67.3    46    2.2    81      6.2     0.00     574     381    859.6   61.0
 123   10:00   67.7    41    3.1   122      6.7     0.00     707     376    859.6   61.1
 123   10:10   69.6    36    3.5    93      8.3     0.00     754     373    859.4   61.3
 123   10:20   68.2    38    3.7    51      7.9     0.00     753     374    859.3   61.4
 123   10:30   68.2    36    4.5    32      9.8     0.00     758     374    859.2   61.6
 123   10:40   68.8    36    3.3    43      8.1     0.00     882     373    859.2   61.9
 123   10:50   69.2    35    5.3    39     11.0     0.00     945     376    859.0   62.1
 123   11:00   70.0    34    4.3    45      9.7     0.00     867     376    858.8   62.4
 123   11:10   69.9    33    4.6    29     11.0     0.00     970     378    858.7   62.7
 123   11:20   71.0    31    5.4    77     12.4     0.00     748     380    858.5   63.0
 123   11:30   72.4    30    4.6   134      8.3     0.00     693     380    858.4   63.3
 123   11:40   72.2    28    4.8    55     10.7     0.00     579     379    858.2   63.7
 123   11:50   71.2    29    5.3    49     11.8     0.00     473     380    858.0   64.0
 123   12:00   70.5    30    2.9    64      6.0     0.00     598     377    857.8   64.4
 123   12:10   72.2    28    4.1    29     11.2     0.00     717     381    857.6   64.7
 123   12:20   72.5    25    5.0    41     12.1     0.00     479     379    857.4   65.0
 123   12:30   71.7    25    4.4    16     10.4     0.00     443     378    857.3   65.3
 123   12:40   72.1    24    4.7     2      8.7     0.00     438     382    857.1   65.6
 123   12:50   71.6    24    5.6   299      9.2     0.00     443     381    856.9   65.8
 123   13:00   72.4    23    6.3     0     14.6     0.00     504     383    856.8   66.0
 123   13:10   73.1    23    5.3    45     10.3     0.00     627     386    856.7   66.2
 123   13:20   73.1    22    6.2   354     12.1     0.00     826     389    856.5   66.4
 123   13:30   74.4    21    6.5    23     13.9     0.00     725     401    856.2   66.5
 123   13:40   74.5    20    8.6    86     14.3     0.00     438     397    856.2   66.7
 123   13:50   74.5    20    7.1   109     13.7     0.00     374     397    856.2   66.8
 123   14:00   69.3    31   20.0   153     35.4     0.00     371     395    856.6   67.0
 123   14:10   62.7    44   17.2   164     32.0     0.00     128     384    857.1   67.1
 123   14:20   62.2    42    9.3   147     22.5     0.00      81     379    858.4   67.3
 123   14:30   61.6    43    9.6   206     19.7     0.00      39     382    859.5   67.4
 123   14:40   59.5    48    6.1   188     19.2     0.00      26     383    860.0   67.5
 123   14:50   58.2    53    6.3   175     15.2     0.00      41     379    860.1   67.5
 123   15:00   56.7    59   11.6   273     21.4     0.00     117     370    859.2   67.5
 123   15:10   55.7    62   10.9   253     22.1     0.00     206     352    858.9   67.5
 123   15:20   56.4    61   11.2   235     20.0     0.00     202     347    859.0   67.5
 123   15:30   56.5    60   11.0   256     20.9     0.00     260     359    859.0   67.4
 123   15:40   55.8    59   10.7   264     18.9     0.00     202     341    859.1   67.3
 123   15:50   54.4    62   14.8   266     29.6     0.00     339     326    859.2   67.2
 123   16:00   54.8    61   14.7   277     28.9     0.00     392     328    859.2   67.1
 123   16:10   55.3    60   13.6   278     24.0     0.00     296     329    859.1   67.0
 123   16:20   54.7    59   14.4   267     26.4     0.00     153     336    859.1   66.9
 123   16:30   55.0    58   12.8   272     22.6     0.00     122     340    859.1   66.8
 123   16:40   55.4    57   12.0   275     19.9     0.00     163     354    859.0   66.7
 123   16:50   55.7    55   12.0   286     20.9     0.00     135     360    859.0   66.6
 123   17:00   56.4    54    9.0   271     18.3     0.00     144     361    858.9   66.5
 123   17:10   57.1    53    8.3   267     15.2     0.00     108     347    858.9   66.4
 123   17:20   57.3    52    7.8   262     16.3     0.00     115     338    859.1   66.3
 123   17:30   58.1    51    5.9   254     12.4     0.00     217     348    859.1   66.2
 123   17:40   59.8    48    5.2   223      9.3     0.00     177     366    859.1   66.1
 123   17:50   59.3    49    6.0   189     11.4     0.00     103     369    859.2   66.0
 123   18:00   58.0    52    7.7   203     14.2     0.00      99     358    859.5   65.9
 123   18:10   57.2    55    6.8   234     10.7     0.00      88     350    859.6   65.8
 123   18:20   57.0    55    6.4   254     10.2     0.00      50     359    859.5   65.8
 123   18:30   56.8    54    5.6   276      9.8     0.00      26     359    859.2   65.7
 123   18:40   56.7    54    5.9   293      9.9     0.00      10     357    859.0   65.6
 123   18:50   56.4    54    6.2   298      9.3     0.00       4     352    858.7   65.5
 123   19:00   56.6    53    3.4   290      5.9     0.00       2     348    858.6   65.4
 123   19:10   56.6    53    1.1   196      3.0     0.00       1     347    858.7   65.3
 123   19:20   56.2    55    4.3   224      8.7     0.00       0     353    858.8   65.2
 123   19:30   55.9    57    4.2   260      8.0     0.00       0     355    858.7   65.2
 123   19:40   55.7    57    3.8   327      7.1     0.00       0     350    858.8   65.0
 123   19:50   55.3    58    5.4   344      8.6     0.00       0     335    858.8   64.9
 123   20:00   54.2    62    5.1   354      8.6     0.00       0     324    859.2   64.8
 123   20:10   53.7    63    3.7    51      8.7     0.00       0     316    859.4   64.7
 123   20:20   53.5    64    2.0    51      4.7     0.00       0     319    859.4   64.6
 123   20:30   53.4    64    2.0   347      4.5     0.00       0     328    859.5   64.5
 123   20:40   53.1    65    4.5   310      8.3     0.00       0     323    859.4   64.4
 123   20:50   53.1    64    4.7   298      8.5     0.00       0     317    859.4   64.3
 123   21:00   52.9    64    3.0   257      4.7     0.00       0     316    859.2   64.1
 123   21:10   52.4    65    3.9   240      8.3     0.00       0     327    859.2   64.0
 123   21:20   52.8    65    5.4   246      8.5     0.00       0     333    859.1   63.9
 123   21:30   52.8    65    5.1   257      8.3     0.00       0     348    859.2   63.8
 123   21:40   53.0    64    6.1   275      9.7     0.00       0     334    859.0   63.7
 123   21:50   52.8    64    5.8   258      9.5     0.00       0     311    858.9   63.5

Return to Reno (UNR), Nevada graphs page.


Western Regional Climate Center,wrcc@dri.edu